Time;durP1;ratioP1;P1;durP2;ratioP2;P2;SDS_P1;SDS_P2;PMS_P1;PMS_P2;Temp;Humidity;BMP_temperature;BMP_pressure;BME280_temperature;BME280_humidity;BME280_pressure;Samples;Min_cycle;Max_cycle;Signal;HPM_P1;HPM_P2
2022/03/30 00:00:12;;;;;;;75.17;38.17;;;;;;;3.93;76.89;99618.77;1682168;84;25849;-76
2022/03/30 00:02:42;;;;;;;74.97;36.83;;;;;;;3.91;76.95;99614.14;1686544;84;26614;-76
2022/03/30 00:05:09;;;;;;;71.85;37.78;;;;;;;3.89;76.84;99614.81;1674271;84;25910;-76
2022/03/30 00:07:35;;;;;;;72.10;36.15;;;;;;;3.85;76.93;99612.66;1681188;84;26557;-76
2022/03/30 00:10:04;;;;;;;73.37;36.42;;;;;;;3.83;76.84;99618.63;1686628;84;25753;-75
2022/03/30 00:12:30;;;;;;;76.67;41.65;;;;;;;3.84;76.81;99624.27;1677830;84;25845;-76
2022/03/30 00:14:57;;;;;;;82.53;43.17;;;;;;;3.85;76.94;99624.58;1676141;84;27465;-76
2022/03/30 00:17:23;;;;;;;87.40;41.48;;;;;;;3.85;76.99;99617.95;1673749;84;25928;-76
2022/03/30 00:19:50;;;;;;;83.27;43.90;;;;;;;3.81;76.67;99623.27;1696522;83;25876;-76
2022/03/30 00:22:16;;;;;;;88.15;44.35;;;;;;;3.73;76.58;99623.28;1692442;83;25714;-76
2022/03/30 00:24:43;;;;;;;85.22;44.98;;;;;;;3.68;76.66;99615.83;1692764;83;26588;-76
2022/03/30 00:27:11;;;;;;;87.05;43.92;;;;;;;3.67;76.63;99616.84;1685881;83;28358;-76
2022/03/30 00:29:37;;;;;;;93.90;45.30;;;;;;;3.67;76.79;99619.48;1698055;83;25957;-76
2022/03/30 00:32:05;;;;;;;89.90;44.85;;;;;;;3.65;76.74;99616.19;1686644;84;25834;-76
2022/03/30 00:34:31;;;;;;;85.62;43.48;;;;;;;3.62;76.83;99619.64;1681681;84;26632;-76
2022/03/30 00:36:58;;;;;;;89.72;43.70;;;;;;;3.60;77.14;99622.47;1687221;84;26015;-76
2022/03/30 00:39:24;;;;;;;83.00;43.87;;;;;;;3.50;76.91;99614.36;1678747;84;27471;-76
2022/03/30 00:41:50;;;;;;;78.12;39.65;;;;;;;3.47;76.93;99614.67;1650403;84;25965;-76
2022/03/30 00:44:16;;;;;;;82.35;42.83;;;;;;;3.45;77.22;99612.69;1682029;83;25848;-76
2022/03/30 00:46:43;;;;;;;84.20;44.05;;;;;;;3.37;77.14;99608.23;1699518;83;25999;-76
2022/03/30 00:49:10;;;;;;;76.60;40.65;;;;;;;3.33;77.05;99609.56;1686906;84;26563;-76
2022/03/30 00:51:36;;;;;;;85.17;43.02;;;;;;;3.32;77.02;99609.22;1693362;84;27984;-76
2022/03/30 00:54:03;;;;;;;81.80;41.23;;;;;;;3.30;77.10;99609.88;1648702;84;25856;-76
2022/03/30 00:56:33;;;;;;;77.78;40.70;;;;;;;3.25;76.96;99613.50;1685760;84;25769;-76
2022/03/30 00:59:05;;;;;;;87.55;41.77;;;;;;;3.24;77.02;99611.03;1688751;84;25881;-76
2022/03/30 01:01:35;;;;;;;80.70;40.67;;;;;;;3.24;77.35;99617.16;1665433;84;25786;-76
2022/03/30 01:04:05;;;;;;;80.75;41.30;;;;;;;3.24;77.33;99610.54;1690555;84;27859;-76
2022/03/30 01:06:33;;;;;;;81.43;42.77;;;;;;;3.23;77.32;99602.77;1662367;83;27028;-76
2022/03/30 01:09:00;;;;;;;79.17;40.98;;;;;;;3.24;77.51;99604.41;1700680;83;25742;-76
2022/03/30 01:11:28;;;;;;;78.20;41.15;;;;;;;3.24;77.63;99599.95;1695486;83;25866;-76
2022/03/30 01:13:56;;;;;;;82.65;42.70;;;;;;;3.26;77.73;99601.11;1695603;83;25901;-76
2022/03/30 01:16:23;;;;;;;82.70;40.78;;;;;;;3.26;77.69;99592.68;1689205;83;28254;-76
2022/03/30 01:18:50;;;;;;;81.55;42.55;;;;;;;3.27;77.79;99593.52;1697560;83;25895;-76
2022/03/30 01:21:17;;;;;;;83.90;44.15;;;;;;;3.27;77.77;99591.70;1686221;84;25777;-75
2022/03/30 01:23:43;;;;;;;91.17;46.05;;;;;;;3.30;77.76;99595.81;1687593;84;25813;-75
2022/03/30 01:26:09;;;;;;;91.60;46.90;;;;;;;3.29;77.69;99589.72;1696794;84;26093;-75
2022/03/30 01:28:36;;;;;;;94.07;48.08;;;;;;;3.29;77.69;99588.39;1660676;83;27463;-76
2022/03/30 01:33:48;;;;;;;82.40;45.12;;;;;;;3.25;77.67;99582.27;1651353;83;25808;-76
2022/03/30 01:36:18;;;;;;;84.28;44.95;;;;;;;3.21;77.67;99578.30;1678437;83;25791;-76
2022/03/30 01:38:44;;;;;;;80.13;46.40;;;;;;;3.18;77.56;99578.61;1699770;83;25940;-76
2022/03/30 01:41:12;;;;;;;83.37;45.92;;;;;;;3.17;77.59;99571.16;1667836;84;27448;-76
2022/03/30 01:43:38;;;;;;;88.58;46.02;;;;;;;3.14;77.62;99576.28;1692627;83;25798;-76
2022/03/30 01:46:05;;;;;;;90.38;45.60;;;;;;;3.10;77.69;99567.55;1666372;84;25758;-76
2022/03/30 01:48:32;;;;;;;80.57;44.08;;;;;;;3.07;77.66;99569.19;1679768;83;26365;-77
2022/03/30 01:50:59;;;;;;;88.82;45.20;;;;;;;3.07;77.76;99564.72;1700913;84;26580;-77
2022/03/30 01:53:26;;;;;;;85.15;43.00;;;;;;;3.06;77.68;99558.25;1687727;83;27488;-77
2022/03/30 01:55:52;;;;;;;86.97;42.83;;;;;;;3.04;77.78;99556.27;1687087;84;25819;-77
2022/03/30 01:58:19;;;;;;;88.15;43.33;;;;;;;3.03;77.85;99560.76;1673801;84;25809;-77
2022/03/30 02:00:45;;;;;;;87.67;43.13;;;;;;;3.02;77.76;99555.12;1682982;84;25751;-77
2022/03/30 02:03:15;;;;;;;79.35;42.62;;;;;;;2.98;77.60;99547.67;1666999;84;25281;-77
2022/03/30 02:05:39;;;;;;;82.30;42.90;;;;;;;2.94;77.49;99544.54;1673002;84;27447;-76
2022/03/30 02:08:07;;;;;;;80.92;43.10;;;;;;;2.93;77.36;99548.16;1684031;84;25894;-77
2022/03/30 02:10:34;;;;;;;81.75;43.23;;;;;;;2.86;77.28;99546.34;1684870;84;26516;-77
2022/03/30 02:13:00;;;;;;;84.70;44.48;;;;;;;2.75;77.24;99550.62;1692468;83;26335;-77
2022/03/30 02:15:26;;;;;;;84.05;41.48;;;;;;;2.68;77.29;99549.60;1697586;83;25866;-77
2022/03/30 02:17:53;;;;;;;86.50;42.80;;;;;;;2.60;77.44;99543.81;1697570;83;27644;-77
2022/03/30 02:20:19;;;;;;;73.75;39.30;;;;;;;2.57;77.65;99537.52;1681819;83;26707;-77
2022/03/30 02:22:45;;;;;;;83.12;42.23;;;;;;;2.53;77.67;99530.91;1691933;83;25852;-77
2022/03/30 02:25:12;;;;;;;81.97;42.67;;;;;;;2.51;77.73;99530.24;1689957;83;25827;-77
2022/03/30 02:27:38;;;;;;;84.05;44.50;;;;;;;2.46;77.76;99537.02;1686822;83;26530;-77
2022/03/30 02:30:07;;;;;;;85.47;44.48;;;;;;;2.44;77.79;99528.42;1694811;83;27492;-77
2022/03/30 02:32:34;;;;;;;83.72;40.35;;;;;;;2.40;77.67;99532.34;1679349;83;25929;-77
2022/03/30 02:35:00;;;;;;;79.10;40.03;;;;;;;2.33;77.67;99529.55;1690968;83;25844;-77
2022/03/30 02:37:26;;;;;;;77.92;39.00;;;;;;;2.29;77.82;99526.38;1703571;83;26328;-76
2022/03/30 02:39:52;;;;;;;79.53;40.43;;;;;;;2.28;77.78;99529.19;1684275;83;25726;-76
2022/03/30 02:42:18;;;;;;;74.75;38.80;;;;;;;2.27;77.77;99527.03;1690484;83;27482;-76
2022/03/30 02:44:45;;;;;;;79.30;39.88;;;;;;;2.27;77.73;99532.80;1691458;83;26638;-76
2022/03/30 02:47:11;;;;;;;73.90;37.98;;;;;;;2.25;77.73;99526.85;1681369;83;25771;-76
2022/03/30 02:49:38;;;;;;;74.65;38.30;;;;;;;2.26;77.83;99535.13;1679371;84;25871;-75
2022/03/30 02:52:06;;;;;;;75.67;38.02;;;;;;;2.23;77.70;99529.66;1682257;84;26434;-76
2022/03/30 02:54:33;;;;;;;77.58;39.60;;;;;;;2.17;77.59;99527.66;1686885;84;27544;-76
2022/03/30 02:56:59;;;;;;;82.05;41.40;;;;;;;2.14;77.68;99524.49;1678514;84;25974;-76
2022/03/30 02:59:26;;;;;;;79.22;40.05;;;;;;;2.12;77.67;99528.63;1687656;83;26038;-76
2022/03/30 03:01:54;;;;;;;79.20;41.28;;;;;;;2.11;77.70;99526.15;1703684;83;25794;-76
2022/03/30 03:04:21;;;;;;;80.32;39.63;;;;;;;2.12;77.83;99527.78;1707231;83;25828;-76
2022/03/30 03:06:47;;;;;;;75.42;38.30;;;;;;;2.13;77.97;99522.37;1700671;83;28329;-76
2022/03/30 03:09:14;;;;;;;71.50;36.20;;;;;;;2.16;78.05;99521.23;1698581;83;26436;-77
2022/03/30 03:11:40;;;;;;;76.25;42.08;;;;;;;2.13;78.08;99521.53;1679386;83;25763;-76
2022/03/30 03:14:07;;;;;;;73.87;37.98;;;;;;;2.13;78.18;99520.21;1699305;82;25854;-76
2022/03/30 03:16:34;;;;;;;79.77;38.55;;;;;;;2.13;78.27;99515.77;1705224;82;25883;-77
2022/03/30 03:19:01;;;;;;;82.35;39.08;;;;;;;2.13;78.32;99514.44;1680576;83;27458;-76
2022/03/30 03:21:28;;;;;;;77.12;38.85;;;;;;;2.11;78.29;99515.58;1681618;84;25848;-76
2022/03/30 03:23:54;;;;;;;86.70;43.02;;;;;;;2.11;78.39;99510.30;1670405;84;25768;-77
2022/03/30 03:26:20;;;;;;;77.05;39.80;;;;;;;2.14;78.62;99506.00;1677248;84;26437;-76
2022/03/30 03:28:46;;;;;;;82.12;41.23;;;;;;;2.16;78.75;99511.46;1682453;84;25762;-77
2022/03/30 03:31:13;;;;;;;76.37;40.35;;;;;;;2.19;78.81;99511.64;1678610;83;28399;-76
2022/03/30 03:33:39;;;;;;;84.00;43.30;;;;;;;2.20;78.85;99512.80;1677566;84;26481;-77
2022/03/30 03:36:05;;;;;;;84.83;41.42;;;;;;;2.20;78.91;99514.12;1682830;84;25355;-76
2022/03/30 03:38:31;;;;;;;86.20;43.58;;;;;;;2.18;78.84;99513.97;1693628;83;25956;-77
2022/03/30 03:40:58;;;;;;;90.80;43.42;;;;;;;2.16;78.88;99515.95;1693694;83;25883;-77
2022/03/30 03:43:24;;;;;;;83.97;41.92;;;;;;;2.17;78.82;99513.63;1693394;83;28124;-77
2022/03/30 03:45:50;;;;;;;85.38;41.60;;;;;;;2.15;78.53;99516.43;1691080;83;25879;-76
2022/03/30 03:48:17;;;;;;;84.42;41.85;;;;;;;2.15;78.41;99517.75;1697296;83;26534;-81
2022/03/30 03:50:45;;;;;;;81.30;42.00;;;;;;;2.14;78.46;99513.44;1693699;83;26569;-76
2022/03/30 03:53:11;;;;;;;78.25;40.33;;;;;;;2.12;78.33;99510.62;1693910;83;25822;-76
2022/03/30 03:55:37;;;;;;;95.38;41.55;;;;;;;2.08;78.24;99513.25;1694306;83;28263;-76
2022/03/30 03:58:05;;;;;;;81.02;41.92;;;;;;;2.04;78.21;99506.14;1698928;83;26517;-76
2022/03/30 04:00:34;;;;;;;85.50;42.62;;;;;;;2.03;78.40;99505.80;1692821;83;26615;-76
2022/03/30 04:03:00;;;;;;;83.80;42.58;;;;;;;2.01;78.46;99504.33;1690203;83;26200;-76
2022/03/30 04:05:27;;;;;;;95.25;45.45;;;;;;;1.95;78.42;99503.13;1697263;83;26080;-76
2022/03/30 04:07:53;;;;;;;84.77;42.55;;;;;;;1.91;78.52;99501.80;1694462;83;27463;-77
2022/03/30 04:10:19;;;;;;;89.50;43.95;;;;;;;1.90;78.61;99499.33;1691496;83;25837;-77
2022/03/30 04:12:45;;;;;;;90.22;43.33;;;;;;;1.89;78.68;99504.25;1691533;84;26118;-77
2022/03/30 04:15:12;;;;;;;92.82;43.92;;;;;;;1.89;78.72;99506.41;1690221;83;26085;-77
2022/03/30 04:17:47;;;;;;;85.30;43.45;;;;;;;1.92;78.78;99505.27;1692210;83;25872;-77
2022/03/30 04:20:15;;;;;;;85.07;41.23;;;;;;;1.89;78.60;99502.45;1690772;84;27466;-75
2022/03/30 04:22:43;;;;;;;86.97;42.45;;;;;;;1.89;78.40;99506.41;1688734;83;25923;-75
2022/03/30 04:25:10;;;;;;;91.60;45.50;;;;;;;1.87;78.27;99506.23;1691970;83;25843;-74
2022/03/30 04:27:48;;;;;;;89.90;44.40;;;;;;;1.86;78.27;99501.95;1693417;83;25902;-75
2022/03/30 04:30:17;;;;;;;86.12;43.55;;;;;;;1.87;78.29;99509.70;1692559;83;26126;-75
2022/03/30 04:32:44;;;;;;;84.92;45.52;;;;;;;1.87;78.07;99508.38;1660568;84;28393;-75
2022/03/30 04:35:12;;;;;;;85.38;43.02;;;;;;;1.87;78.24;99512.34;1694478;83;25805;-75
2022/03/30 04:37:39;;;;;;;86.05;43.87;;;;;;;1.86;78.47;99509.35;1689046;83;25824;-75
2022/03/30 04:40:08;;;;;;;85.67;44.35;;;;;;;1.86;78.67;99502.75;1688488;84;25744;-75
2022/03/30 04:42:34;;;;;;;84.62;42.25;;;;;;;1.88;78.89;99508.70;1688073;84;25955;-75
2022/03/30 04:45:01;;;;;;;88.90;44.18;;;;;;;1.88;79.10;99507.38;1690052;83;27528;-75
2022/03/30 04:47:28;;;;;;;84.65;41.73;;;;;;;1.89;79.60;99510.86;1692383;83;26016;-75
2022/03/30 04:49:54;;;;;;;85.90;41.63;;;;;;;1.90;79.80;99509.89;1691045;83;26598;-75
2022/03/30 04:52:20;;;;;;;86.60;44.23;;;;;;;1.91;80.01;99511.52;1679242;84;25860;-75
2022/03/30 04:54:46;;;;;;;88.20;43.20;;;;;;;1.91;80.38;99518.13;1679207;84;26482;-75
2022/03/30 04:57:13;;;;;;;94.40;43.25;;;;;;;1.94;80.61;99518.66;1679805;84;27621;-75
2022/03/30 04:59:39;;;;;;;84.32;41.35;;;;;;;1.98;80.97;99521.31;1679941;84;25828;-77
2022/03/30 05:02:05;;;;;;;88.80;43.65;;;;;;;1.99;81.04;99522.14;1679565;84;25753;-75
2022/03/30 05:04:33;;;;;;;88.70;40.98;;;;;;;2.01;81.27;99522.30;1679665;84;25859;-75
2022/03/30 05:06:59;;;;;;;87.85;43.23;;;;;;;2.05;81.52;99524.95;1679571;84;26339;-75
2022/03/30 05:09:25;;;;;;;85.42;38.30;;;;;;;2.09;81.64;99524.16;1682884;82;27525;-75
2022/03/30 05:11:51;;;;;;;90.22;43.58;;;;;;;2.10;82.09;99519.20;1691579;84;25848;-75
2022/03/30 05:14:18;;;;;;;92.67;42.78;;;;;;;2.13;82.25;99525.01;1718016;82;25910;-75
2022/03/30 05:16:44;;;;;;;88.75;44.05;;;;;;;2.18;82.43;99528.50;1718585;83;25943;-75
2022/03/30 05:19:11;;;;;;;89.32;43.13;;;;;;;2.21;82.66;99530.31;1702785;83;25920;-75
2022/03/30 05:21:37;;;;;;;87.08;42.75;;;;;;;2.27;82.87;99525.71;1700513;83;28326;-75
2022/03/30 05:24:04;;;;;;;91.78;44.65;;;;;;;2.29;82.98;99529.50;1703408;83;25854;-75
2022/03/30 05:26:30;;;;;;;96.02;47.05;;;;;;;2.34;83.02;99532.50;1687927;84;25887;-75
2022/03/30 05:28:57;;;;;;;98.75;45.92;;;;;;;2.37;83.10;99527.39;1692545;84;25769;-75
2022/03/30 05:31:23;;;;;;;99.15;49.88;;;;;;;2.39;83.46;99532.86;1698228;83;25868;-75
2022/03/30 05:33:49;;;;;;;85.75;43.30;;;;;;;2.41;83.49;99532.69;1673113;84;27990;-75
2022/03/30 05:36:15;;;;;;;86.42;44.90;;;;;;;2.45;83.71;99541.95;1687785;83;25892;-75
2022/03/30 05:38:42;;;;;;;89.67;45.73;;;;;;;2.50;83.62;99537.85;1696822;83;26543;-75
2022/03/30 05:41:08;;;;;;;101.12;46.92;;;;;;;2.58;83.78;99539.67;1683820;83;26616;-75
2022/03/30 05:43:35;;;;;;;90.75;45.70;;;;;;;2.62;83.68;99535.72;1688495;83;25775;-75
2022/03/30 05:46:01;;;;;;;94.65;46.00;;;;;;;2.69;83.86;99536.25;1692832;83;27629;-75
2022/03/30 05:48:27;;;;;;;89.00;43.80;;;;;;;2.78;83.59;99538.41;1696523;83;25778;-75
2022/03/30 05:50:55;;;;;;;89.58;42.78;;;;;;;2.82;83.84;99543.18;1695005;83;25824;-75
2022/03/30 05:53:21;;;;;;;96.25;47.40;;;;;;;2.85;83.68;99540.22;1698101;83;26225;-75
2022/03/30 05:55:48;;;;;;;97.65;47.08;;;;;;;2.88;83.59;99545.69;1706499;83;25874;-75
2022/03/30 05:58:14;;;;;;;90.12;45.90;;;;;;;2.94;83.69;99547.19;1692221;84;28312;-75
2022/03/30 06:00:42;;;;;;;93.20;45.98;;;;;;;2.99;83.67;99546.17;1693097;83;25597;-75
2022/03/30 06:03:10;;;;;;;85.75;44.67;;;;;;;3.06;83.57;99545.03;1701603;82;25864;-75
2022/03/30 06:05:37;;;;;;;83.20;41.35;;;;;;;3.14;83.48;99545.86;1693073;83;26294;-75
2022/03/30 06:08:06;;;;;;;89.45;44.23;;;;;;;3.23;83.39;99552.50;1696655;83;25732;-75
2022/03/30 06:10:32;;;;;;;73.25;38.23;;;;;;;3.28;83.20;99547.02;1686111;83;28264;-75
2022/03/30 06:12:59;;;;;;;86.97;42.62;;;;;;;3.33;83.07;99557.95;1702132;83;25937;-76
2022/03/30 06:15:26;;;;;;;89.62;43.15;;;;;;;3.37;82.91;99547.84;1675740;84;25991;-75
2022/03/30 06:17:54;;;;;;;81.87;42.03;;;;;;;3.45;82.98;99545.19;1672839;84;26248;-75
2022/03/30 06:20:24;;;;;;;82.72;42.10;;;;;;;3.52;82.73;99540.89;1705650;83;26183;-76
2022/03/30 06:22:52;;;;;;;85.40;43.75;;;;;;;3.62;82.70;99545.01;1677024;84;27467;-76
2022/03/30 06:25:22;;;;;;;89.83;44.00;;;;;;;3.68;82.29;99544.82;1700634;83;26478;-76
2022/03/30 06:27:49;;;;;;;100.85;51.00;;;;;;;3.76;82.24;99545.63;1684890;83;25973;-75
2022/03/30 06:30:15;;;;;;;97.65;46.85;;;;;;;3.87;82.24;99548.45;1694430;83;25936;-75
2022/03/30 06:32:41;;;;;;;87.72;43.95;;;;;;;3.97;82.16;99541.13;1690589;83;25805;-76
2022/03/30 06:35:09;;;;;;;81.60;41.90;;;;;;;4.05;82.26;99545.06;1684802;83;28301;-76
2022/03/30 06:37:35;;;;;;;76.90;41.73;;;;;;;4.14;81.83;99546.70;1700265;83;25919;-76
2022/03/30 06:40:03;;;;;;;77.10;40.95;;;;;;;4.23;81.55;99547.50;1689080;83;25888;-76
2022/03/30 06:42:29;;;;;;;70.97;38.23;;;;;;;4.32;81.53;99542.49;1711032;83;25647;-75
2022/03/30 06:44:56;;;;;;;77.53;39.13;;;;;;;4.40;81.08;99545.94;1689772;83;25826;-75
2022/03/30 06:47:22;;;;;;;73.52;39.80;;;;;;;4.46;80.80;99545.73;1698509;83;27582;-75
2022/03/30 06:49:49;;;;;;;69.82;35.13;;;;;;;4.54;80.57;99555.80;1704105;83;26559;-75
2022/03/30 06:52:15;;;;;;;72.85;35.23;;;;;;;4.61;79.97;99554.11;1698349;83;26056;-75
2022/03/30 06:54:41;;;;;;;74.65;34.90;;;;;;;4.66;79.49;99552.27;1690698;83;25848;-75
2022/03/30 06:57:07;;;;;;;59.35;30.27;;;;;;;4.73;79.41;99557.17;1706681;83;26106;-75
2022/03/30 06:59:34;;;;;;;67.22;33.45;;;;;;;4.82;78.73;99556.13;1691482;83;27540;-76
2022/03/30 07:02:00;;;;;;;62.50;33.85;;;;;;;4.90;79.20;99560.05;1680557;84;25890;-76
2022/03/30 07:04:27;;;;;;;58.85;33.23;;;;;;;5.00;78.76;99560.67;1682973;84;26527;-76
2022/03/30 07:12:22;;;;;;;66.60;32.93;;;;;;;5.21;76.65;99564.83;1679597;84;28489;-75
2022/03/30 07:14:49;;;;;;;64.87;32.25;;;;;;;5.28;76.98;99566.28;1691713;83;25959;-75
2022/03/30 07:17:15;;;;;;;61.20;32.50;;;;;;;5.34;76.72;99564.23;1688115;84;25924;-76
2022/03/30 07:19:43;;;;;;;54.73;30.17;;;;;;;5.44;77.16;99570.11;1692302;83;25902;-76
2022/03/30 07:22:13;;;;;;;57.17;28.47;;;;;;;5.52;76.83;99566.05;1684851;83;26004;-75
2022/03/30 07:24:41;;;;;;;52.50;25.17;;;;;;;5.62;76.52;99571.95;1693023;83;26907;-75
2022/03/30 07:27:07;;;;;;;49.40;25.48;;;;;;;5.73;75.99;99574.16;1669776;84;25829;-75
2022/03/30 07:29:33;;;;;;;43.25;23.98;;;;;;;5.85;76.19;99576.75;1686991;84;26377;-75
2022/03/30 07:32:00;;;;;;;52.95;25.82;;;;;;;5.99;75.31;99575.09;1698778;84;25809;-75
2022/03/30 07:34:27;;;;;;;48.80;22.62;;;;;;;6.10;74.29;99576.80;1675316;84;26493;-75
2022/03/30 07:36:53;;;;;;;34.60;17.57;;;;;;;6.18;73.70;99569.23;1683199;84;28310;-75
2022/03/30 07:39:19;;;;;;;35.15;18.42;;;;;;;6.28;72.50;99572.95;1692020;84;25785;-75
2022/03/30 07:41:45;;;;;;;39.25;19.90;;;;;;;6.34;71.86;99572.21;1695727;84;25821;-75
2022/03/30 07:44:11;;;;;;;38.23;19.48;;;;;;;6.40;72.03;99576.29;1691821;84;25789;-75
2022/03/30 07:46:38;;;;;;;40.43;18.25;;;;;;;6.49;71.28;99579.67;1679982;84;25973;-76
2022/03/30 07:49:04;;;;;;;34.55;17.62;;;;;;;6.52;69.95;99576.66;1692438;83;27481;-76
2022/03/30 07:51:30;;;;;;;37.65;18.20;;;;;;;6.54;69.31;99577.30;1683919;84;25819;-75
2022/03/30 07:53:57;;;;;;;37.95;18.57;;;;;;;6.61;70.12;99583.50;1692049;84;25828;-75
2022/03/30 07:56:23;;;;;;;35.78;17.02;;;;;;;6.71;69.13;99584.89;1678753;83;26597;-75
2022/03/30 07:58:50;;;;;;;37.60;16.75;;;;;;;6.79;69.07;99582.61;1690617;83;26063;-75
2022/03/30 08:01:17;;;;;;;32.85;15.98;;;;;;;6.88;67.65;99581.49;1700100;83;27498;-75
2022/03/30 08:03:44;;;;;;;38.28;15.00;;;;;;;6.91;67.66;99579.77;1695665;83;25901;-75
2022/03/30 08:06:12;;;;;;;26.60;13.35;;;;;;;6.95;67.10;99589.02;1687618;83;25913;-75
2022/03/30 08:08:39;;;;;;;32.42;15.38;;;;;;;7.01;66.87;99588.30;1690015;83;26205;-75
2022/03/30 08:11:05;;;;;;;30.45;13.88;;;;;;;7.08;65.11;99590.50;1687317;83;25838;-75
2022/03/30 08:13:31;;;;;;;27.15;13.22;;;;;;;7.11;65.60;99591.47;1688592;83;28533;-75
2022/03/30 08:15:58;;;;;;;28.73;12.85;;;;;;;7.18;64.99;99600.36;1697206;83;25749;-75
2022/03/30 08:18:24;;;;;;;29.00;14.30;;;;;;;7.20;64.07;99598.33;1696559;83;25288;-75
2022/03/30 08:23:36;;;;;;;27.07;12.95;;;;;;;7.35;64.54;99596.44;1697333;83;25315;-75
2022/03/30 08:26:03;;;;;;;25.75;10.78;;;;;;;7.46;64.94;99595.90;1696120;83;27545;-75
2022/03/30 08:28:30;;;;;;;24.10;10.58;;;;;;;7.53;63.77;99600.79;1695276;83;26550;-76
2022/03/30 08:30:58;;;;;;;26.95;11.85;;;;;;;7.56;63.44;99601.75;1696331;83;26565;-77
2022/03/30 08:33:26;;;;;;;22.82;11.40;;;;;;;7.59;62.06;99602.69;1700617;82;26428;-75
2022/03/30 08:35:56;;;;;;;23.95;11.53;;;;;;;7.54;62.58;99598.46;1696562;83;25826;-76
2022/03/30 08:38:22;;;;;;;22.55;9.05;;;;;;;7.58;62.74;99595.72;1696362;83;27460;-76
2022/03/30 08:40:51;;;;;;;30.43;11.73;;;;;;;7.58;60.59;99597.56;1695102;82;25945;-75
2022/03/30 08:43:18;;;;;;;23.87;10.00;;;;;;;7.61;62.13;99596.66;1696355;82;25804;-76
2022/03/30 08:45:44;;;;;;;22.73;10.03;;;;;;;7.66;61.51;99592.91;1701964;82;25851;-76
2022/03/30 08:48:10;;;;;;;24.87;10.75;;;;;;;7.66;62.30;99590.25;1688744;83;25960;-75
2022/03/30 08:50:36;;;;;;;29.42;10.65;;;;;;;7.75;62.35;99593.60;1689700;83;27655;-76
2022/03/30 08:53:06;;;;;;;21.23;7.97;;;;;;;7.87;63.21;99592.58;1686038;83;25814;-75
2022/03/30 08:55:33;;;;;;;16.85;7.37;;;;;;;7.97;60.19;99592.55;1688271;83;25892;-76
2022/03/30 08:58:01;;;;;;;21.12;7.72;;;;;;;7.92;60.52;99588.80;1696860;83;26680;-76
2022/03/30 09:00:30;;;;;;;28.12;8.78;;;;;;;8.07;62.05;99594.86;1707077;82;25817;-75
2022/03/30 09:03:07;;;;;;;19.35;8.08;;;;;;;8.22;61.25;99589.73;1708911;82;27558;-76
2022/03/30 09:05:31;;;;;;;21.48;8.90;;;;;;;8.22;57.05;99582.23;1689355;83;26006;-75
2022/03/30 09:08:25;;;;;;;20.62;8.13;;;;;;;8.15;58.63;99588.03;1689467;83;26386;-76
2022/03/30 09:10:55;;;;;;;17.12;7.20;;;;;;;8.15;58.65;99598.70;1677517;84;26277;-76
2022/03/30 09:13:21;;;;;;;14.03;7.12;;;;;;;8.08;56.60;99584.52;1684942;84;25908;-75
2022/03/30 09:15:52;;;;;;;23.47;10.50;;;;;;;8.04;57.76;99590.73;1692636;83;26935;-76
2022/03/30 09:18:19;;;;;;;18.80;8.60;;;;;;;8.01;58.09;99593.81;1677043;84;25819;-76
2022/03/30 09:20:51;;;;;;;29.23;12.88;;;;;;;8.04;58.37;99590.73;1680789;84;25774;-76
2022/03/30 09:23:18;;;;;;;31.62;11.03;;;;;;;8.10;58.80;99587.81;1692694;83;25891;-76
2022/03/30 09:25:50;;;;;;;21.55;8.83;;;;;;;8.16;58.64;99583.02;1688156;83;25300;-78
2022/03/30 09:28:19;;;;;;;16.97;9.03;;;;;;;8.19;57.58;99587.98;1685453;83;27491;-76
2022/03/30 09:30:47;;;;;;;17.23;8.98;;;;;;;8.16;56.07;99578.52;1686592;83;25920;-76
2022/03/30 09:33:19;;;;;;;21.02;9.28;;;;;;;8.24;58.12;99574.86;1689971;83;25970;-75
2022/03/30 09:35:46;;;;;;;21.30;9.00;;;;;;;8.36;57.79;99570.67;1691262;83;26618;-76
2022/03/30 09:38:19;;;;;;;25.65;9.53;;;;;;;8.45;57.91;99570.29;1690015;83;26526;-76
2022/03/30 09:40:50;;;;;;;16.97;7.92;;;;;;;8.52;57.09;99568.98;1691640;83;28096;-76
2022/03/30 09:43:22;;;;;;;;;;;;;;;8.60;57.35;99569.34;1692925;83;26481;-76
2022/03/30 09:46:08;;;;;;;13.70;6.15;;;;;;;8.72;57.00;99563.73;1688331;83;25328;-76
2022/03/30 09:48:39;;;;;;;11.97;5.12;;;;;;;8.84;55.79;99556.78;1714768;83;25860;-76
2022/03/30 09:51:08;;;;;;;18.20;6.20;;;;;;;8.83;53.14;99552.48;1710864;83;26408;-76
2022/03/30 09:53:36;;;;;;;16.00;6.12;;;;;;;8.73;53.53;99559.52;1700779;83;26926;-75
2022/03/30 09:56:07;;;;;;;17.23;6.00;;;;;;;8.73;54.02;99548.84;1710453;83;26597;-75
2022/03/30 09:58:37;;;;;;;21.93;8.10;;;;;;;8.68;54.16;99558.48;1714887;83;26221;-75
2022/03/30 10:01:10;;;;;;;19.05;6.20;;;;;;;8.66;54.96;99557.33;1717785;83;26162;-75
2022/03/30 10:03:53;;;;;;;17.05;7.25;;;;;;;8.68;54.47;99552.64;1708735;83;25745;-76
2022/03/30 10:06:26;;;;;;;16.23;7.30;;;;;;;8.72;54.43;99553.89;1703672;83;28306;-76
2022/03/30 10:08:55;;;;;;;20.55;7.60;;;;;;;8.86;55.48;99556.06;1696042;83;25626;-76
2022/03/30 10:11:27;;;;;;;19.50;7.40;;;;;;;8.91;55.14;99554.46;1699133;83;25756;-76
2022/03/30 10:13:58;;;;;;;23.50;6.62;;;;;;;8.93;54.22;99552.91;1705931;83;26285;-76
2022/03/30 10:16:24;;;;;;;14.28;5.95;;;;;;;8.95;53.52;99552.20;1720836;83;26157;-76
2022/03/30 10:18:51;;;;;;;23.05;7.50;;;;;;;8.89;53.14;99547.67;1711214;83;27081;-76
2022/03/30 10:21:26;;;;;;;13.22;6.55;;;;;;;8.87;54.27;99549.72;1698269;83;26514;-76
2022/03/30 10:24:03;;;;;;;15.53;5.72;;;;;;;8.88;54.04;99543.34;1712603;83;25720;-76
2022/03/30 10:27:12;;;;;;;11.95;5.33;;;;;;;8.86;53.95;99538.71;1715835;83;25994;-76
2022/03/30 10:29:52;;;;;;;18.02;5.62;;;;;;;8.87;53.01;99545.21;1707338;83;25775;-76
2022/03/30 10:32:24;;;;;;;12.90;5.75;;;;;;;8.79;53.29;99542.70;1707035;83;28289;-76
2022/03/30 10:35:00;;;;;;;15.78;5.83;;;;;;;8.77;53.76;99551.42;1714042;83;25948;-76
2022/03/30 10:37:36;;;;;;;12.18;5.80;;;;;;;8.76;52.65;99548.45;1704733;83;25760;-76
2022/03/30 10:40:08;;;;;;;13.48;5.60;;;;;;;8.77;51.69;99539.41;1686267;83;45058;-76
2022/03/30 10:42:57;;;;;;;17.40;5.90;;;;;;;8.88;52.60;99532.66;1712064;83;25898;-76
2022/03/30 10:45:31;;;;;;;11.68;5.90;;;;;;;9.05;52.58;99530.75;1717254;83;27478;-76
2022/03/30 10:48:33;;;;;;;20.20;5.87;;;;;;;9.21;52.14;99532.23;1693340;83;25865;-76
2022/03/30 10:51:14;;;;;;;15.72;5.37;;;;;;;9.18;49.39;99529.95;1708774;82;25768;-76
2022/03/30 10:53:43;;;;;;;14.13;5.70;;;;;;;8.99;49.66;99536.91;1703423;82;25796;-76
2022/03/30 10:56:24;;;;;;;19.12;6.08;;;;;;;8.93;50.72;99536.39;1698364;83;26021;-77
2022/03/30 10:59:01;;;;;;;16.87;6.15;;;;;;;9.04;51.83;99541.65;1700683;83;28383;-76
2022/03/30 11:01:34;;;;;;;19.82;6.83;;;;;;;9.09;51.03;99540.51;1692723;83;25787;-76
2022/03/30 11:04:14;;;;;;;15.53;6.62;;;;;;;9.09;50.44;99534.66;1691641;83;25912;-76
2022/03/30 11:06:43;;;;;;;11.33;5.78;;;;;;;9.08;50.87;99538.88;1684675;83;26234;-76
2022/03/30 11:09:23;;;;;;;17.52;6.28;;;;;;;9.12;50.99;99545.45;1685029;83;26000;-76
2022/03/30 11:12:03;;;;;;;13.37;5.40;;;;;;;9.15;50.28;99541.06;1694414;83;27405;-76
2022/03/30 11:14:43;;;;;;;12.85;6.17;;;;;;;9.23;50.79;99536.84;1702782;82;25923;-76
2022/03/30 11:17:13;;;;;;;14.90;5.30;;;;;;;9.34;50.59;99541.05;1722632;82;25912;-76
2022/03/30 11:19:59;;;;;;;15.03;5.65;;;;;;;9.37;50.21;99536.36;1714806;83;26302;-76
2022/03/30 11:22:29;;;;;;;14.00;5.12;;;;;;;9.46;50.92;99544.46;1733263;81;26012;-76
2022/03/30 11:25:19;;;;;;;14.38;5.15;;;;;;;9.52;49.41;99534.28;1699618;83;28278;-76
2022/03/30 11:28:03;;;;;;;15.63;4.87;;;;;;;9.48;47.81;99537.89;1689692;84;25825;-76
2022/03/30 11:30:38;;;;;;;9.93;3.70;;;;;;;9.43;48.28;99542.22;1665330;84;25783;-76
2022/03/30 11:33:21;;;;;;;9.98;4.70;;;;;;;9.37;47.29;99549.72;1675599;84;26308;-76
2022/03/30 11:35:49;;;;;;;14.13;4.75;;;;;;;9.23;47.22;99547.03;1689318;84;25855;-76
2022/03/30 11:38:23;;;;;;;12.63;4.53;;;;;;;9.16;47.58;99548.03;1691638;84;27481;-76
2022/03/30 11:40:57;;;;;;;12.33;5.35;;;;;;;9.16;48.11;99546.70;1697010;84;25837;-76
2022/03/30 11:43:23;;;;;;;16.42;5.08;;;;;;;9.19;48.82;99539.11;1692159;84;25966;-76